sensor_id;sensor_type;location;lat;lon;timestamp;P1;durP1;ratioP1;P2;durP2;ratioP2
3189;SDS011;1606;51.946;10.558;2022-09-13T00:01:15;9.57;;;3.30;;
3189;SDS011;1606;51.946;10.558;2022-09-13T00:03:43;8.10;;;4.17;;
3189;SDS011;1606;51.946;10.558;2022-09-13T00:06:11;9.47;;;4.60;;
3189;SDS011;1606;51.946;10.558;2022-09-13T00:08:45;8.27;;;3.87;;
3189;SDS011;1606;51.946;10.558;2022-09-13T00:11:17;8.07;;;3.20;;
3189;SDS011;1606;51.946;10.558;2022-09-13T00:13:47;8.43;;;3.70;;
3189;SDS011;1606;51.946;10.558;2022-09-13T00:16:16;7.27;;;2.97;;
3189;SDS011;1606;51.946;10.558;2022-09-13T00:18:49;8.67;;;4.20;;
3189;SDS011;1606;51.946;10.558;2022-09-13T00:21:17;8.73;;;3.53;;
3189;SDS011;1606;51.946;10.558;2022-09-13T00:23:51;8.83;;;3.67;;
3189;SDS011;1606;51.946;10.558;2022-09-13T00:26:22;7.27;;;2.90;;
3189;SDS011;1606;51.946;10.558;2022-09-13T00:28:57;8.23;;;3.73;;
3189;SDS011;1606;51.946;10.558;2022-09-13T00:31:31;7.77;;;3.50;;
3189;SDS011;1606;51.946;10.558;2022-09-13T00:33:59;7.77;;;3.33;;
3189;SDS011;1606;51.946;10.558;2022-09-13T00:36:29;8.87;;;3.57;;
3189;SDS011;1606;51.946;10.558;2022-09-13T00:39:02;9.00;;;3.70;;
3189;SDS011;1606;51.946;10.558;2022-09-13T00:41:30;6.10;;;2.40;;
3189;SDS011;1606;51.946;10.558;2022-09-13T00:43:59;8.63;;;3.60;;
3189;SDS011;1606;51.946;10.558;2022-09-13T00:46:30;8.53;;;4.03;;
3189;SDS011;1606;51.946;10.558;2022-09-13T00:49:07;8.20;;;4.20;;
3189;SDS011;1606;51.946;10.558;2022-09-13T00:51:41;7.57;;;3.40;;
3189;SDS011;1606;51.946;10.558;2022-09-13T00:54:16;8.30;;;4.27;;
3189;SDS011;1606;51.946;10.558;2022-09-13T00:56:46;9.33;;;4.17;;
3189;SDS011;1606;51.946;10.558;2022-09-13T00:59:23;9.20;;;4.43;;
3189;SDS011;1606;51.946;10.558;2022-09-13T01:01:55;8.00;;;3.70;;
3189;SDS011;1606;51.946;10.558;2022-09-13T01:04:25;8.40;;;3.90;;
3189;SDS011;1606;51.946;10.558;2022-09-13T01:07:02;8.70;;;4.77;;
3189;SDS011;1606;51.946;10.558;2022-09-13T01:09:38;7.50;;;3.67;;
3189;SDS011;1606;51.946;10.558;2022-09-13T01:12:11;9.50;;;4.57;;
3189;SDS011;1606;51.946;10.558;2022-09-13T01:14:48;8.50;;;4.07;;
3189;SDS011;1606;51.946;10.558;2022-09-13T01:17:17;8.20;;;3.33;;
3189;SDS011;1606;51.946;10.558;2022-09-13T01:19:59;10.00;;;4.50;;
3189;SDS011;1606;51.946;10.558;2022-09-13T01:22:41;8.37;;;4.00;;
3189;SDS011;1606;51.946;10.558;2022-09-13T01:25:41;8.50;;;4.40;;
3189;SDS011;1606;51.946;10.558;2022-09-13T01:32:03;8.40;;;3.93;;
3189;SDS011;1606;51.946;10.558;2022-09-13T01:34:41;8.27;;;3.17;;
3189;SDS011;1606;51.946;10.558;2022-09-13T01:37:29;9.60;;;4.03;;
3189;SDS011;1606;51.946;10.558;2022-09-13T01:40:04;8.53;;;4.57;;
3189;SDS011;1606;51.946;10.558;2022-09-13T01:45:35;11.15;;;4.50;;
3189;SDS011;1606;51.946;10.558;2022-09-13T01:48:14;9.10;;;4.10;;
3189;SDS011;1606;51.946;10.558;2022-09-13T01:50:51;9.27;;;4.50;;
3189;SDS011;1606;51.946;10.558;2022-09-13T01:53:29;9.32;;;4.45;;
3189;SDS011;1606;51.946;10.558;2022-09-13T01:56:04;9.10;;;5.10;;
3189;SDS011;1606;51.946;10.558;2022-09-13T01:58:38;9.70;;;4.30;;
3189;SDS011;1606;51.946;10.558;2022-09-13T02:01:10;9.47;;;5.17;;
3189;SDS011;1606;51.946;10.558;2022-09-13T02:03:46;9.53;;;4.50;;
3189;SDS011;1606;51.946;10.558;2022-09-13T02:06:21;8.70;;;4.93;;
3189;SDS011;1606;51.946;10.558;2022-09-13T02:08:53;9.27;;;4.83;;
3189;SDS011;1606;51.946;10.558;2022-09-13T02:11:23;11.90;;;5.10;;
3189;SDS011;1606;51.946;10.558;2022-09-13T02:13:53;8.07;;;4.20;;
3189;SDS011;1606;51.946;10.558;2022-09-13T02:16:26;9.40;;;5.00;;
3189;SDS011;1606;51.946;10.558;2022-09-13T02:19:00;9.83;;;4.40;;
3189;SDS011;1606;51.946;10.558;2022-09-13T02:21:35;8.77;;;4.43;;
3189;SDS011;1606;51.946;10.558;2022-09-13T02:24:10;9.07;;;5.20;;
3189;SDS011;1606;51.946;10.558;2022-09-13T02:26:44;8.43;;;4.20;;
3189;SDS011;1606;51.946;10.558;2022-09-13T02:29:16;11.47;;;4.40;;
3189;SDS011;1606;51.946;10.558;2022-09-13T02:31:47;9.50;;;5.00;;
3189;SDS011;1606;51.946;10.558;2022-09-13T02:34:26;13.17;;;4.67;;
3189;SDS011;1606;51.946;10.558;2022-09-13T02:36:58;9.07;;;4.70;;
3189;SDS011;1606;51.946;10.558;2022-09-13T02:39:28;8.20;;;4.40;;
3189;SDS011;1606;51.946;10.558;2022-09-13T02:42:00;10.30;;;5.10;;
3189;SDS011;1606;51.946;10.558;2022-09-13T02:44:39;12.03;;;6.20;;
3189;SDS011;1606;51.946;10.558;2022-09-13T02:47:10;8.63;;;4.70;;
3189;SDS011;1606;51.946;10.558;2022-09-13T02:49:53;8.50;;;4.53;;
3189;SDS011;1606;51.946;10.558;2022-09-13T02:52:31;9.00;;;5.17;;
3189;SDS011;1606;51.946;10.558;2022-09-13T02:55:07;11.00;;;5.20;;
3189;SDS011;1606;51.946;10.558;2022-09-13T02:57:47;9.07;;;4.93;;
3189;SDS011;1606;51.946;10.558;2022-09-13T03:00:20;11.70;;;4.70;;
3189;SDS011;1606;51.946;10.558;2022-09-13T03:02:48;8.30;;;4.27;;
3189;SDS011;1606;51.946;10.558;2022-09-13T03:05:18;9.50;;;5.20;;
3189;SDS011;1606;51.946;10.558;2022-09-13T03:07:46;11.73;;;4.60;;
3189;SDS011;1606;51.946;10.558;2022-09-13T03:10:15;8.60;;;3.90;;
3189;SDS011;1606;51.946;10.558;2022-09-13T03:12:48;8.00;;;4.70;;
3189;SDS011;1606;51.946;10.558;2022-09-13T03:15:36;9.30;;;4.30;;
3189;SDS011;1606;51.946;10.558;2022-09-13T03:18:27;7.90;;;3.83;;
3189;SDS011;1606;51.946;10.558;2022-09-13T03:21:13;9.93;;;5.17;;
3189;SDS011;1606;51.946;10.558;2022-09-13T03:23:53;10.20;;;4.37;;
3189;SDS011;1606;51.946;10.558;2022-09-13T03:26:35;9.20;;;4.73;;
3189;SDS011;1606;51.946;10.558;2022-09-13T03:29:21;7.67;;;4.20;;
3189;SDS011;1606;51.946;10.558;2022-09-13T03:32:13;8.53;;;4.67;;
3189;SDS011;1606;51.946;10.558;2022-09-13T03:34:52;9.53;;;4.03;;
3189;SDS011;1606;51.946;10.558;2022-09-13T03:37:31;7.90;;;4.87;;
3189;SDS011;1606;51.946;10.558;2022-09-13T03:40:04;8.93;;;4.67;;
3189;SDS011;1606;51.946;10.558;2022-09-13T03:42:38;10.50;;;4.30;;
3189;SDS011;1606;51.946;10.558;2022-09-13T03:45:11;7.77;;;4.30;;
3189;SDS011;1606;51.946;10.558;2022-09-13T03:47:41;9.50;;;5.13;;
3189;SDS011;1606;51.946;10.558;2022-09-13T03:50:13;7.57;;;4.37;;
3189;SDS011;1606;51.946;10.558;2022-09-13T03:52:57;9.07;;;3.90;;
3189;SDS011;1606;51.946;10.558;2022-09-13T03:55:27;14.30;;;4.13;;
3189;SDS011;1606;51.946;10.558;2022-09-13T03:57:56;7.17;;;3.53;;
3189;SDS011;1606;51.946;10.558;2022-09-13T04:00:24;9.70;;;4.70;;
3189;SDS011;1606;51.946;10.558;2022-09-13T04:02:52;8.07;;;5.00;;
3189;SDS011;1606;51.946;10.558;2022-09-13T04:05:20;8.57;;;4.60;;
3189;SDS011;1606;51.946;10.558;2022-09-13T04:07:48;10.57;;;4.87;;
3189;SDS011;1606;51.946;10.558;2022-09-13T04:10:17;8.50;;;4.53;;
3189;SDS011;1606;51.946;10.558;2022-09-13T04:12:45;10.93;;;4.70;;
3189;SDS011;1606;51.946;10.558;2022-09-13T04:15:14;17.43;;;5.17;;
3189;SDS011;1606;51.946;10.558;2022-09-13T04:17:42;12.87;;;4.70;;
3189;SDS011;1606;51.946;10.558;2022-09-13T04:20:10;9.30;;;4.93;;
3189;SDS011;1606;51.946;10.558;2022-09-13T04:22:38;9.53;;;4.90;;
3189;SDS011;1606;51.946;10.558;2022-09-13T04:25:06;8.60;;;4.50;;
3189;SDS011;1606;51.946;10.558;2022-09-13T04:27:36;9.20;;;4.30;;
3189;SDS011;1606;51.946;10.558;2022-09-13T04:30:04;8.20;;;4.50;;
3189;SDS011;1606;51.946;10.558;2022-09-13T04:32:33;8.80;;;4.80;;
3189;SDS011;1606;51.946;10.558;2022-09-13T04:35:03;8.33;;;5.03;;
3189;SDS011;1606;51.946;10.558;2022-09-13T04:37:31;11.70;;;5.73;;
3189;SDS011;1606;51.946;10.558;2022-09-13T04:39:59;10.60;;;5.60;;
3189;SDS011;1606;51.946;10.558;2022-09-13T04:42:27;9.43;;;5.70;;
3189;SDS011;1606;51.946;10.558;2022-09-13T04:44:57;14.00;;;5.30;;
3189;SDS011;1606;51.946;10.558;2022-09-13T04:47:27;9.83;;;5.87;;
3189;SDS011;1606;51.946;10.558;2022-09-13T04:49:57;11.50;;;5.23;;
3189;SDS011;1606;51.946;10.558;2022-09-13T04:52:25;9.63;;;5.90;;
3189;SDS011;1606;51.946;10.558;2022-09-13T04:54:53;10.20;;;5.30;;
3189;SDS011;1606;51.946;10.558;2022-09-13T04:57:26;10.30;;;5.83;;
3189;SDS011;1606;51.946;10.558;2022-09-13T04:59:59;10.73;;;5.90;;
3189;SDS011;1606;51.946;10.558;2022-09-13T05:02:27;10.03;;;5.37;;
3189;SDS011;1606;51.946;10.558;2022-09-13T05:04:54;10.80;;;5.90;;
3189;SDS011;1606;51.946;10.558;2022-09-13T05:07:22;9.63;;;6.20;;
3189;SDS011;1606;51.946;10.558;2022-09-13T05:09:50;9.80;;;4.87;;
3189;SDS011;1606;51.946;10.558;2022-09-13T05:12:18;10.30;;;5.90;;
3189;SDS011;1606;51.946;10.558;2022-09-13T05:14:46;11.53;;;5.40;;
3189;SDS011;1606;51.946;10.558;2022-09-13T05:17:15;10.87;;;6.00;;
3189;SDS011;1606;51.946;10.558;2022-09-13T05:19:42;10.50;;;5.93;;
3189;SDS011;1606;51.946;10.558;2022-09-13T05:22:10;15.40;;;9.37;;
3189;SDS011;1606;51.946;10.558;2022-09-13T05:24:38;16.73;;;9.73;;
3189;SDS011;1606;51.946;10.558;2022-09-13T05:27:11;12.50;;;7.23;;
3189;SDS011;1606;51.946;10.558;2022-09-13T05:29:38;12.50;;;6.60;;
3189;SDS011;1606;51.946;10.558;2022-09-13T05:32:06;10.50;;;6.53;;
3189;SDS011;1606;51.946;10.558;2022-09-13T05:34:35;12.20;;;6.17;;
3189;SDS011;1606;51.946;10.558;2022-09-13T05:37:03;10.60;;;5.60;;
3189;SDS011;1606;51.946;10.558;2022-09-13T05:39:31;11.10;;;5.80;;
3189;SDS011;1606;51.946;10.558;2022-09-13T05:42:18;11.07;;;6.60;;
3189;SDS011;1606;51.946;10.558;2022-09-13T05:44:46;12.00;;;6.43;;
3189;SDS011;1606;51.946;10.558;2022-09-13T05:47:17;13.67;;;8.53;;
3189;SDS011;1606;51.946;10.558;2022-09-13T05:49:46;13.67;;;7.67;;
3189;SDS011;1606;51.946;10.558;2022-09-13T05:52:34;15.97;;;7.57;;
3189;SDS011;1606;51.946;10.558;2022-09-13T05:55:01;12.93;;;7.77;;
3189;SDS011;1606;51.946;10.558;2022-09-13T05:57:30;13.70;;;8.33;;
3189;SDS011;1606;51.946;10.558;2022-09-13T05:59:57;15.40;;;8.00;;
3189;SDS011;1606;51.946;10.558;2022-09-13T06:02:28;11.40;;;7.20;;
3189;SDS011;1606;51.946;10.558;2022-09-13T06:04:59;13.37;;;7.13;;
3189;SDS011;1606;51.946;10.558;2022-09-13T06:07:26;13.43;;;7.67;;
3189;SDS011;1606;51.946;10.558;2022-09-13T06:09:54;12.50;;;6.97;;
3189;SDS011;1606;51.946;10.558;2022-09-13T06:12:26;12.00;;;7.03;;
3189;SDS011;1606;51.946;10.558;2022-09-13T06:14:54;13.20;;;7.70;;
3189;SDS011;1606;51.946;10.558;2022-09-13T06:17:22;13.93;;;7.43;;
3189;SDS011;1606;51.946;10.558;2022-09-13T06:19:52;13.68;;;7.85;;
3189;SDS011;1606;51.946;10.558;2022-09-13T06:22:23;12.13;;;7.07;;
3189;SDS011;1606;51.946;10.558;2022-09-13T06:24:51;12.83;;;7.33;;
3189;SDS011;1606;51.946;10.558;2022-09-13T06:27:18;10.87;;;6.73;;
3189;SDS011;1606;51.946;10.558;2022-09-13T06:29:46;12.60;;;7.33;;
3189;SDS011;1606;51.946;10.558;2022-09-13T06:32:14;12.10;;;6.60;;
3189;SDS011;1606;51.946;10.558;2022-09-13T06:34:44;13.60;;;7.33;;
3189;SDS011;1606;51.946;10.558;2022-09-13T06:37:11;14.53;;;6.97;;
3189;SDS011;1606;51.946;10.558;2022-09-13T06:39:43;11.50;;;7.10;;
3189;SDS011;1606;51.946;10.558;2022-09-13T06:42:11;13.37;;;7.40;;
3189;SDS011;1606;51.946;10.558;2022-09-13T06:44:39;11.77;;;6.33;;
3189;SDS011;1606;51.946;10.558;2022-09-13T06:47:10;13.30;;;7.27;;
3189;SDS011;1606;51.946;10.558;2022-09-13T06:49:40;12.67;;;6.70;;
3189;SDS011;1606;51.946;10.558;2022-09-13T06:52:08;12.17;;;7.67;;
3189;SDS011;1606;51.946;10.558;2022-09-13T06:54:47;10.43;;;5.50;;
3189;SDS011;1606;51.946;10.558;2022-09-13T06:57:14;12.77;;;5.40;;
3189;SDS011;1606;51.946;10.558;2022-09-13T06:59:42;14.07;;;6.00;;
3189;SDS011;1606;51.946;10.558;2022-09-13T07:02:10;8.80;;;4.93;;
3189;SDS011;1606;51.946;10.558;2022-09-13T07:04:39;12.73;;;5.73;;
3189;SDS011;1606;51.946;10.558;2022-09-13T07:07:07;14.07;;;5.13;;
3189;SDS011;1606;51.946;10.558;2022-09-13T07:09:35;12.80;;;5.63;;
3189;SDS011;1606;51.946;10.558;2022-09-13T07:12:04;21.37;;;5.13;;
3189;SDS011;1606;51.946;10.558;2022-09-13T07:14:33;11.20;;;4.97;;
3189;SDS011;1606;51.946;10.558;2022-09-13T07:17:00;10.23;;;4.83;;
3189;SDS011;1606;51.946;10.558;2022-09-13T07:19:32;10.20;;;5.13;;
3189;SDS011;1606;51.946;10.558;2022-09-13T07:21:59;9.27;;;4.47;;
3189;SDS011;1606;51.946;10.558;2022-09-13T07:24:27;9.50;;;4.83;;
3189;SDS011;1606;51.946;10.558;2022-09-13T07:26:55;8.20;;;4.33;;
3189;SDS011;1606;51.946;10.558;2022-09-13T07:29:26;8.30;;;4.20;;
3189;SDS011;1606;51.946;10.558;2022-09-13T07:31:56;8.97;;;4.77;;
3189;SDS011;1606;51.946;10.558;2022-09-13T07:34:29;8.10;;;3.73;;
3189;SDS011;1606;51.946;10.558;2022-09-13T07:36:58;8.13;;;4.13;;
3189;SDS011;1606;51.946;10.558;2022-09-13T07:39:26;7.37;;;3.80;;
3189;SDS011;1606;51.946;10.558;2022-09-13T07:41:53;7.53;;;3.40;;
3189;SDS011;1606;51.946;10.558;2022-09-13T07:44:21;6.77;;;3.40;;
3189;SDS011;1606;51.946;10.558;2022-09-13T07:46:53;7.00;;;3.33;;
3189;SDS011;1606;51.946;10.558;2022-09-13T07:49:20;8.87;;;3.80;;
3189;SDS011;1606;51.946;10.558;2022-09-13T07:51:48;8.37;;;3.93;;
3189;SDS011;1606;51.946;10.558;2022-09-13T07:54:18;6.70;;;2.95;;
3189;SDS011;1606;51.946;10.558;2022-09-13T07:56:46;6.90;;;3.20;;
3189;SDS011;1606;51.946;10.558;2022-09-13T07:59:19;7.00;;;3.13;;
3189;SDS011;1606;51.946;10.558;2022-09-13T08:01:54;9.27;;;4.10;;
3189;SDS011;1606;51.946;10.558;2022-09-13T08:04:23;8.17;;;3.80;;
3189;SDS011;1606;51.946;10.558;2022-09-13T08:06:54;8.20;;;3.20;;
3189;SDS011;1606;51.946;10.558;2022-09-13T08:09:22;8.50;;;3.90;;
3189;SDS011;1606;51.946;10.558;2022-09-13T08:11:52;8.27;;;3.80;;
3189;SDS011;1606;51.946;10.558;2022-09-13T08:14:20;6.80;;;2.83;;
3189;SDS011;1606;51.946;10.558;2022-09-13T08:16:57;8.80;;;3.30;;
3189;SDS011;1606;51.946;10.558;2022-09-13T08:19:27;8.27;;;3.30;;
3189;SDS011;1606;51.946;10.558;2022-09-13T08:21:58;7.57;;;3.33;;
3189;SDS011;1606;51.946;10.558;2022-09-13T08:24:28;6.80;;;3.10;;
3189;SDS011;1606;51.946;10.558;2022-09-13T08:26:59;7.70;;;3.20;;
3189;SDS011;1606;51.946;10.558;2022-09-13T08:29:27;8.57;;;3.57;;
3189;SDS011;1606;51.946;10.558;2022-09-13T08:31:57;8.33;;;3.33;;
3189;SDS011;1606;51.946;10.558;2022-09-13T08:34:25;6.53;;;2.80;;
3189;SDS011;1606;51.946;10.558;2022-09-13T08:36:53;6.70;;;3.00;;
3189;SDS011;1606;51.946;10.558;2022-09-13T08:39:23;6.83;;;2.67;;
3189;SDS011;1606;51.946;10.558;2022-09-13T08:42:02;8.17;;;2.83;;
3189;SDS011;1606;51.946;10.558;2022-09-13T08:44:43;12.20;;;3.63;;
3189;SDS011;1606;51.946;10.558;2022-09-13T08:47:20;7.67;;;3.60;;
3189;SDS011;1606;51.946;10.558;2022-09-13T08:49:58;10.20;;;3.87;;
3189;SDS011;1606;51.946;10.558;2022-09-13T08:52:35;8.27;;;3.80;;
3189;SDS011;1606;51.946;10.558;2022-09-13T08:55:16;9.60;;;3.57;;
3189;SDS011;1606;51.946;10.558;2022-09-13T08:57:51;8.67;;;3.90;;
3189;SDS011;1606;51.946;10.558;2022-09-13T09:00:22;8.07;;;3.13;;
3189;SDS011;1606;51.946;10.558;2022-09-13T09:03:03;8.20;;;3.13;;
3189;SDS011;1606;51.946;10.558;2022-09-13T09:05:44;8.00;;;4.03;;
3189;SDS011;1606;51.946;10.558;2022-09-13T09:08:24;8.90;;;3.50;;
3189;SDS011;1606;51.946;10.558;2022-09-13T09:11:05;6.93;;;3.20;;
3189;SDS011;1606;51.946;10.558;2022-09-13T09:13:40;9.07;;;3.30;;
3189;SDS011;1606;51.946;10.558;2022-09-13T09:16:25;8.73;;;3.63;;
3189;SDS011;1606;51.946;10.558;2022-09-13T09:19:02;7.87;;;3.77;;
3189;SDS011;1606;51.946;10.558;2022-09-13T09:21:47;10.30;;;3.70;;
3189;SDS011;1606;51.946;10.558;2022-09-13T09:24:18;6.80;;;3.20;;
3189;SDS011;1606;51.946;10.558;2022-09-13T09:26:48;17.23;;;4.10;;
3189;SDS011;1606;51.946;10.558;2022-09-13T09:29:20;10.03;;;4.70;;
3189;SDS011;1606;51.946;10.558;2022-09-13T09:31:56;9.60;;;4.10;;
3189;SDS011;1606;51.946;10.558;2022-09-13T09:34:43;7.17;;;3.37;;
3189;SDS011;1606;51.946;10.558;2022-09-13T09:37:19;8.60;;;3.90;;
3189;SDS011;1606;51.946;10.558;2022-09-13T09:39:50;7.60;;;3.90;;
3189;SDS011;1606;51.946;10.558;2022-09-13T09:42:20;7.53;;;3.43;;
3189;SDS011;1606;51.946;10.558;2022-09-13T09:44:51;9.07;;;4.40;;
3189;SDS011;1606;51.946;10.558;2022-09-13T09:47:24;8.93;;;3.90;;
3189;SDS011;1606;51.946;10.558;2022-09-13T09:49:56;7.80;;;3.70;;
3189;SDS011;1606;51.946;10.558;2022-09-13T09:52:44;8.63;;;3.70;;
3189;SDS011;1606;51.946;10.558;2022-09-13T09:55:22;9.00;;;3.67;;
3189;SDS011;1606;51.946;10.558;2022-09-13T09:57:59;8.13;;;3.80;;
3189;SDS011;1606;51.946;10.558;2022-09-13T10:00:30;7.30;;;3.77;;
3189;SDS011;1606;51.946;10.558;2022-09-13T10:03:01;8.80;;;4.47;;
3189;SDS011;1606;51.946;10.558;2022-09-13T10:05:33;9.53;;;4.70;;
3189;SDS011;1606;51.946;10.558;2022-09-13T10:08:03;8.73;;;4.00;;
3189;SDS011;1606;51.946;10.558;2022-09-13T10:10:35;8.30;;;4.10;;
3189;SDS011;1606;51.946;10.558;2022-09-13T10:13:11;11.90;;;3.87;;
3189;SDS011;1606;51.946;10.558;2022-09-13T10:15:52;15.03;;;5.17;;
3189;SDS011;1606;51.946;10.558;2022-09-13T10:18:23;7.43;;;3.70;;
3189;SDS011;1606;51.946;10.558;2022-09-13T10:21:21;9.83;;;3.53;;
3189;SDS011;1606;51.946;10.558;2022-09-13T10:24:14;8.47;;;3.53;;
3189;SDS011;1606;51.946;10.558;2022-09-13T10:26:44;10.60;;;3.33;;
3189;SDS011;1606;51.946;10.558;2022-09-13T10:29:15;10.90;;;4.93;;
3189;SDS011;1606;51.946;10.558;2022-09-13T10:31:46;9.73;;;4.80;;
3189;SDS011;1606;51.946;10.558;2022-09-13T10:34:19;9.33;;;5.37;;
3189;SDS011;1606;51.946;10.558;2022-09-13T10:36:56;8.50;;;4.67;;
3189;SDS011;1606;51.946;10.558;2022-09-13T10:39:27;9.47;;;5.53;;
3189;SDS011;1606;51.946;10.558;2022-09-13T10:41:58;15.93;;;5.03;;
3189;SDS011;1606;51.946;10.558;2022-09-13T10:44:32;8.38;;;4.03;;
3189;SDS011;1606;51.946;10.558;2022-09-13T10:47:09;7.97;;;3.93;;
3189;SDS011;1606;51.946;10.558;2022-09-13T10:49:45;8.80;;;3.70;;
3189;SDS011;1606;51.946;10.558;2022-09-13T10:52:23;8.50;;;3.97;;
3189;SDS011;1606;51.946;10.558;2022-09-13T10:54:55;9.57;;;4.20;;
3189;SDS011;1606;51.946;10.558;2022-09-13T10:57:51;10.27;;;5.20;;
3189;SDS011;1606;51.946;10.558;2022-09-13T11:00:20;9.20;;;3.90;;
3189;SDS011;1606;51.946;10.558;2022-09-13T11:02:58;10.17;;;5.00;;
3189;SDS011;1606;51.946;10.558;2022-09-13T11:05:40;8.27;;;3.73;;
3189;SDS011;1606;51.946;10.558;2022-09-13T11:08:22;10.23;;;4.57;;
3189;SDS011;1606;51.946;10.558;2022-09-13T11:11:06;10.40;;;4.73;;
3189;SDS011;1606;51.946;10.558;2022-09-13T11:16:41;10.43;;;5.10;;
3189;SDS011;1606;51.946;10.558;2022-09-13T11:22:37;9.23;;;4.00;;
3189;SDS011;1606;51.946;10.558;2022-09-13T11:25:33;8.97;;;3.90;;
3189;SDS011;1606;51.946;10.558;2022-09-13T11:28:18;9.50;;;4.97;;
3189;SDS011;1606;51.946;10.558;2022-09-13T11:31:00;11.67;;;4.37;;
3189;SDS011;1606;51.946;10.558;2022-09-13T11:33:37;12.47;;;4.53;;
3189;SDS011;1606;51.946;10.558;2022-09-13T11:36:19;9.60;;;5.00;;
3189;SDS011;1606;51.946;10.558;2022-09-13T11:39:03;10.53;;;4.23;;
3189;SDS011;1606;51.946;10.558;2022-09-13T11:41:47;7.63;;;4.20;;
3189;SDS011;1606;51.946;10.558;2022-09-13T11:44:34;10.90;;;4.07;;
3189;SDS011;1606;51.946;10.558;2022-09-13T11:47:29;10.30;;;4.77;;
3189;SDS011;1606;51.946;10.558;2022-09-13T11:50:16;10.63;;;5.23;;
3189;SDS011;1606;51.946;10.558;2022-09-13T11:52:52;11.20;;;5.60;;
3189;SDS011;1606;51.946;10.558;2022-09-13T11:55:38;9.50;;;4.93;;
3189;SDS011;1606;51.946;10.558;2022-09-13T11:58:12;7.90;;;4.33;;
3189;SDS011;1606;51.946;10.558;2022-09-13T12:00:50;9.17;;;5.03;;
3189;SDS011;1606;51.946;10.558;2022-09-13T12:03:24;8.80;;;4.57;;
3189;SDS011;1606;51.946;10.558;2022-09-13T12:05:58;9.43;;;5.50;;
3189;SDS011;1606;51.946;10.558;2022-09-13T12:08:29;9.20;;;3.97;;
3189;SDS011;1606;51.946;10.558;2022-09-13T12:11:05;10.20;;;5.07;;
3189;SDS011;1606;51.946;10.558;2022-09-13T12:13:45;9.90;;;4.90;;
3189;SDS011;1606;51.946;10.558;2022-09-13T12:16:21;9.70;;;4.80;;
3189;SDS011;1606;51.946;10.558;2022-09-13T12:18:52;10.57;;;5.00;;
3189;SDS011;1606;51.946;10.558;2022-09-13T12:21:23;10.90;;;6.00;;
3189;SDS011;1606;51.946;10.558;2022-09-13T12:24:04;12.03;;;5.90;;
3189;SDS011;1606;51.946;10.558;2022-09-13T12:26:40;9.63;;;5.10;;
3189;SDS011;1606;51.946;10.558;2022-09-13T12:29:19;12.97;;;5.43;;
3189;SDS011;1606;51.946;10.558;2022-09-13T12:31:54;10.87;;;5.70;;
3189;SDS011;1606;51.946;10.558;2022-09-13T12:34:27;11.30;;;5.40;;
3189;SDS011;1606;51.946;10.558;2022-09-13T12:37:09;22.43;;;6.23;;
3189;SDS011;1606;51.946;10.558;2022-09-13T12:39:59;20.83;;;5.90;;
3189;SDS011;1606;51.946;10.558;2022-09-13T12:42:47;15.63;;;6.50;;
3189;SDS011;1606;51.946;10.558;2022-09-13T12:45:34;12.10;;;6.00;;
3189;SDS011;1606;51.946;10.558;2022-09-13T12:51:21;17.47;;;6.73;;
3189;SDS011;1606;51.946;10.558;2022-09-13T12:54:11;11.43;;;5.63;;
3189;SDS011;1606;51.946;10.558;2022-09-13T12:56:55;11.93;;;5.87;;
3189;SDS011;1606;51.946;10.558;2022-09-13T12:59:59;11.73;;;5.67;;
3189;SDS011;1606;51.946;10.558;2022-09-13T13:02:51;9.30;;;4.40;;
3189;SDS011;1606;51.946;10.558;2022-09-13T13:05:27;10.47;;;5.27;;
3189;SDS011;1606;51.946;10.558;2022-09-13T13:08:00;9.80;;;5.30;;
3189;SDS011;1606;51.946;10.558;2022-09-13T13:10:36;12.80;;;5.03;;
3189;SDS011;1606;51.946;10.558;2022-09-13T13:13:08;9.90;;;4.50;;
3189;SDS011;1606;51.946;10.558;2022-09-13T13:15:55;7.63;;;4.00;;
3189;SDS011;1606;51.946;10.558;2022-09-13T13:18:49;9.30;;;4.30;;
3189;SDS011;1606;51.946;10.558;2022-09-13T13:21:30;10.50;;;4.63;;
3189;SDS011;1606;51.946;10.558;2022-09-13T13:27:32;9.67;;;4.10;;
3189;SDS011;1606;51.946;10.558;2022-09-13T13:33:20;10.43;;;3.63;;
3189;SDS011;1606;51.946;10.558;2022-09-13T13:35:52;19.70;;;4.60;;
3189;SDS011;1606;51.946;10.558;2022-09-13T13:50:30;7.07;;;2.90;;
3189;SDS011;1606;51.946;10.558;2022-09-13T13:53:20;7.93;;;3.07;;
3189;SDS011;1606;51.946;10.558;2022-09-13T13:56:03;13.43;;;3.40;;
3189;SDS011;1606;51.946;10.558;2022-09-13T13:58:46;10.80;;;4.33;;
3189;SDS011;1606;51.946;10.558;2022-09-13T14:01:19;8.67;;;3.13;;
3189;SDS011;1606;51.946;10.558;2022-09-13T14:04:01;7.43;;;3.50;;
3189;SDS011;1606;51.946;10.558;2022-09-13T14:07:06;9.83;;;3.63;;
3189;SDS011;1606;51.946;10.558;2022-09-13T14:09:48;9.27;;;3.17;;
3189;SDS011;1606;51.946;10.558;2022-09-13T14:12:26;9.20;;;4.13;;
3189;SDS011;1606;51.946;10.558;2022-09-13T14:15:02;8.70;;;4.60;;
3189;SDS011;1606;51.946;10.558;2022-09-13T14:17:47;8.33;;;3.77;;
3189;SDS011;1606;51.946;10.558;2022-09-13T14:20:24;7.77;;;3.40;;
3189;SDS011;1606;51.946;10.558;2022-09-13T14:25:40;7.27;;;3.43;;
3189;SDS011;1606;51.946;10.558;2022-09-13T14:28:21;9.20;;;4.03;;
3189;SDS011;1606;51.946;10.558;2022-09-13T14:30:56;12.33;;;4.10;;
3189;SDS011;1606;51.946;10.558;2022-09-13T14:33:25;7.40;;;3.50;;
3189;SDS011;1606;51.946;10.558;2022-09-13T14:36:01;13.10;;;3.90;;
3189;SDS011;1606;51.946;10.558;2022-09-13T14:38:32;18.73;;;4.30;;
3189;SDS011;1606;51.946;10.558;2022-09-13T14:41:10;9.07;;;3.33;;
3189;SDS011;1606;51.946;10.558;2022-09-13T14:43:40;11.93;;;4.00;;
3189;SDS011;1606;51.946;10.558;2022-09-13T14:46:11;9.20;;;3.67;;
3189;SDS011;1606;51.946;10.558;2022-09-13T14:48:50;8.00;;;3.27;;
3189;SDS011;1606;51.946;10.558;2022-09-13T14:51:21;10.67;;;4.50;;
3189;SDS011;1606;51.946;10.558;2022-09-13T14:53:55;8.83;;;4.00;;
3189;SDS011;1606;51.946;10.558;2022-09-13T14:56:30;9.63;;;3.57;;
3189;SDS011;1606;51.946;10.558;2022-09-13T14:59:06;8.47;;;4.10;;
3189;SDS011;1606;51.946;10.558;2022-09-13T15:01:40;9.20;;;4.60;;
3189;SDS011;1606;51.946;10.558;2022-09-13T15:04:08;7.60;;;3.97;;
3189;SDS011;1606;51.946;10.558;2022-09-13T15:06:37;8.33;;;4.13;;
3189;SDS011;1606;51.946;10.558;2022-09-13T15:09:14;8.50;;;4.07;;
3189;SDS011;1606;51.946;10.558;2022-09-13T15:11:57;10.27;;;3.47;;
3189;SDS011;1606;51.946;10.558;2022-09-13T15:14:28;8.67;;;4.17;;
3189;SDS011;1606;51.946;10.558;2022-09-13T15:16:58;9.80;;;4.90;;
3189;SDS011;1606;51.946;10.558;2022-09-13T15:19:36;12.43;;;4.90;;
3189;SDS011;1606;51.946;10.558;2022-09-13T15:22:19;8.00;;;4.43;;
3189;SDS011;1606;51.946;10.558;2022-09-13T15:24:49;9.20;;;4.87;;
3189;SDS011;1606;51.946;10.558;2022-09-13T15:27:21;9.73;;;5.87;;
3189;SDS011;1606;51.946;10.558;2022-09-13T15:29:53;12.30;;;4.83;;
3189;SDS011;1606;51.946;10.558;2022-09-13T15:32:30;11.50;;;4.40;;
3189;SDS011;1606;51.946;10.558;2022-09-13T15:35:00;7.30;;;4.17;;
3189;SDS011;1606;51.946;10.558;2022-09-13T15:37:29;7.67;;;3.53;;
3189;SDS011;1606;51.946;10.558;2022-09-13T15:40:10;10.80;;;4.43;;
3189;SDS011;1606;51.946;10.558;2022-09-13T15:42:46;9.10;;;4.73;;
3189;SDS011;1606;51.946;10.558;2022-09-13T15:45:15;9.43;;;4.37;;
3189;SDS011;1606;51.946;10.558;2022-09-13T15:47:45;10.47;;;4.57;;
3189;SDS011;1606;51.946;10.558;2022-09-13T15:50:18;11.07;;;5.50;;
3189;SDS011;1606;51.946;10.558;2022-09-13T15:52:48;9.73;;;5.10;;
3189;SDS011;1606;51.946;10.558;2022-09-13T15:55:16;8.80;;;4.50;;
3189;SDS011;1606;51.946;10.558;2022-09-13T15:57:53;8.60;;;5.13;;
3189;SDS011;1606;51.946;10.558;2022-09-13T16:00:26;8.20;;;4.53;;
3189;SDS011;1606;51.946;10.558;2022-09-13T16:02:57;10.37;;;5.40;;
3189;SDS011;1606;51.946;10.558;2022-09-13T16:05:28;9.83;;;4.73;;
3189;SDS011;1606;51.946;10.558;2022-09-13T16:07:59;8.93;;;4.90;;
3189;SDS011;1606;51.946;10.558;2022-09-13T16:10:26;9.80;;;4.60;;
3189;SDS011;1606;51.946;10.558;2022-09-13T16:12:59;9.27;;;4.93;;
3189;SDS011;1606;51.946;10.558;2022-09-13T16:15:26;7.20;;;3.90;;